NCAR-RAP Real-Time Weather Data

Output produced by METARs form (10 April 2020  06:28 UTC)
found at http://weather.rap.ucar.edu/surface/
 
KLEX 100554Z 30010G23KT 10SM UP FEW014 BKN037 OVC070 01/M01 A2990 RMK AO2 PK WND 31028/0512 RAE47UPB47 SLP128 P0002 60002 T00111006 10094 20011 53019